3W2 weather

Put In Bay Airport
Put In Bay, Ohio, United States

Public forecast

Using degrees Fahrenheit for public forecast. Weather courtesy of forecast.io.

Closest aviation weather report (METAR) to Put In Bay Airport

Closest report is Carl R Keller Field, 7.5 nm (13.8 km) SSW. Retrieved 2020/03/31 22:55 UTC (14 minutes ago):

KPCW 312255Z AUTO 10SM BKN011 BKN039 05/03 A2992 RMK AO2

Closest aviation forecast (TAF) to Put In Bay Airport

Closest forecast is Windsor Airport, 38.8 nm (71.8 km) N. Retrieved 2020/03/31 18:42 UTC (4 hours ago):

TAF CYQG 311738Z 3118/0118 03010KT P6SM -RA OVC009 TEMPO 3118/3121 P6SM NSW OVC012 FM312100 03010KT P6SM -SHRA BKN020 OVC040 TEMPO 3121/3123 P6SM NSW SCT020 OVC040 FM312300 04010KT P6SM OVC020 FM010500 04008KT P6SM -DZ BKN007 OVC015 FM011500 02008KT P6SM OVC015 RMK FCST BASED ON AUTO OBS NXT FCST BY 010000Z